Time;durP1;ratioP1;P1;durP2;ratioP2;P2;SDS_P1;SDS_P2;PMS_P1;PMS_P2;Temp;Humidity;BMP_temperature;BMP_pressure;BME280_temperature;BME280_humidity;BME280_pressure;Samples;Min_cycle;Max_cycle;Signal;HPM_P1;HPM_P2
2021/06/17 00:01:42;;;;;;;;;;;27.80;90.60;;;;;;5084864;28;19914;-48
2021/06/17 00:04:08;;;;;;;;;;;27.70;91.00;;;;;;5084370;28;19967;-53
2021/06/17 00:06:35;;;;;;;;;;;27.70;90.70;;;;;;5097786;28;19912;-49
2021/06/17 00:09:01;;;;;;;;;;;27.80;90.70;;;;;;5092756;28;19908;-47
2021/06/17 00:11:30;;;;;;;;;;;27.80;90.70;;;;;;5095556;28;19960;-49
2021/06/17 00:13:56;;;;;;;;;;;27.70;90.80;;;;;;5083022;28;20250;-49
2021/06/17 00:16:22;;;;;;;;;;;27.70;90.80;;;;;;5084450;28;19912;-48
2021/06/17 00:18:49;;;;;;;;;;;27.70;90.80;;;;;;5088566;28;20006;-47
2021/06/17 00:21:15;;;;;;;;;;;27.70;90.90;;;;;;5082877;28;19971;-50
2021/06/17 00:23:41;;;;;;;;;;;27.70;90.90;;;;;;5065329;28;24087;-57
2021/06/17 00:26:07;;;;;;;;;;;27.70;90.60;;;;;;5089653;28;19908;-52
2021/06/17 00:28:33;;;;;;;;;;;27.70;90.70;;;;;;5091530;28;19900;-52
2021/06/17 00:31:00;;;;;;;;;;;27.70;90.70;;;;;;5084346;28;19909;-51
2021/06/17 00:33:26;;;;;;;;;;;27.70;90.70;;;;;;5092250;28;20200;-48
2021/06/17 00:35:52;;;;;;;;;;;27.70;90.70;;;;;;5099051;28;19908;-50
2021/06/17 00:38:19;;;;;;;;;;;27.70;90.70;;;;;;5083541;28;19904;-45
2021/06/17 00:40:45;;;;;;;;;;;27.60;90.70;;;;;;5084172;28;19909;-50
2021/06/17 00:43:11;;;;;;;;;;;27.60;90.90;;;;;;5083789;28;19901;-48
2021/06/17 00:45:42;;;;;;;;;;;27.60;91.00;;;;;;5084163;28;19940;-49
2021/06/17 00:48:09;;;;;;;;;;;27.60;91.00;;;;;;5083815;28;19900;-46
2021/06/17 00:50:43;;;;;;;;;;;27.60;90.90;;;;;;5083884;28;19946;-47
2021/06/17 00:53:10;;;;;;;;;;;27.70;91.00;;;;;;5083761;28;19907;-47
2021/06/17 00:55:38;;;;;;;;;;;27.60;90.90;;;;;;5083731;28;24077;-44
2021/06/17 00:58:04;;;;;;;;;;;27.60;91.00;;;;;;5077281;28;19922;-46
2021/06/17 01:00:30;;;;;;;;;;;27.60;91.20;;;;;;5063986;28;20242;-46
2021/06/17 01:02:57;;;;;;;;;;;27.50;91.40;;;;;;5069005;28;24099;-44
2021/06/17 01:05:23;;;;;;;;;;;27.50;91.70;;;;;;5083876;28;19905;-45
2021/06/17 01:08:05;;;;;;;;;;;27.50;91.80;;;;;;5083570;28;19908;-50
2021/06/17 01:10:40;;;;;;;;;;;27.50;92.10;;;;;;5093257;28;19915;-51
2021/06/17 01:15:44;;;;;;;;;;;27.40;92.20;;;;;;5163536;27;1132243;-44
2021/06/17 01:18:15;;;;;;;;;;;27.40;92.20;;;;;;5186102;27;19910;-45
2021/06/17 01:21:02;;;;;;;;;;;27.40;92.10;;;;;;5205486;27;19909;-43
2021/06/17 01:23:40;;;;;;;;;;;27.40;92.10;;;;;;5195266;27;20085;-44
2021/06/17 01:26:13;;;;;;;;;;;27.40;92.10;;;;;;5184249;27;19903;-45
2021/06/17 01:28:40;;;;;;;;;;;27.40;92.30;;;;;;5189693;27;19948;-50
2021/06/17 01:31:13;;;;;;;;;;;27.40;92.30;;;;;;5186840;27;20105;-45
2021/06/17 01:33:40;;;;;;;;;;;27.40;92.60;;;;;;5187972;27;19914;-42
2021/06/17 01:36:11;;;;;;;;;;;27.40;92.80;;;;;;5191207;27;19902;-47
2021/06/17 01:38:38;;;;;;;;;;;27.30;92.90;;;;;;5192943;27;19906;-43
2021/06/17 01:41:06;;;;;;;;;;;27.30;93.00;;;;;;5204909;27;19898;-43
2021/06/17 01:43:34;;;;;;;;;;;27.30;93.00;;;;;;5173441;27;19908;-45
2021/06/17 01:46:00;;;;;;;;;;;27.30;93.10;;;;;;5165670;27;20192;-42
2021/06/17 01:48:27;;;;;;;;;;;27.30;93.20;;;;;;5170691;27;19925;-44
2021/06/17 01:50:54;;;;;;;;;;;27.30;93.30;;;;;;5162716;27;19903;-44
2021/06/17 01:53:21;;;;;;;;;;;27.30;93.30;;;;;;5162613;27;19899;-43
2021/06/17 01:55:47;;;;;;;;;;;27.20;93.30;;;;;;5144415;27;20146;-47
2021/06/17 01:58:15;;;;;;;;;;;27.20;93.40;;;;;;5162406;27;19903;-43
2021/06/17 02:00:45;;;;;;;;;;;27.20;93.50;;;;;;5162725;27;19903;-45
2021/06/17 02:03:12;;;;;;;;;;;27.20;93.40;;;;;;5162113;27;19900;-44
2021/06/17 02:05:39;;;;;;;;;;;27.10;93.40;;;;;;5162659;27;19972;-43
2021/06/17 02:08:07;;;;;;;;;;;27.20;93.40;;;;;;5164991;27;19899;-47
2021/06/17 02:10:35;;;;;;;;;;;27.20;93.40;;;;;;5174422;27;19914;-43
2021/06/17 02:13:01;;;;;;;;;;;27.20;93.50;;;;;;5164135;27;19952;-49
2021/06/17 02:15:29;;;;;;;;;;;27.20;93.50;;;;;;5164604;27;19981;-43
2021/06/17 02:17:57;;;;;;;;;;;27.10;93.50;;;;;;5169383;27;19907;-42
2021/06/17 02:20:23;;;;;;;;;;;27.10;93.60;;;;;;5164194;27;19911;-48
2021/06/17 02:22:51;;;;;;;;;;;27.10;93.60;;;;;;5166187;27;19949;-49
2021/06/17 02:25:51;;;;;;;15.30;4.88;;;27.10;94.60;;;;;;5121872;27;20370;-45
2021/06/17 02:28:22;;;;;;;13.48;4.65;;;27.10;93.40;;;;;;5121759;28;20023;-51
2021/06/17 02:30:53;;;;;;;11.48;4.20;;;27.10;93.30;;;;;;5120818;28;20061;-47
2021/06/17 02:33:22;;;;;;;14.05;4.70;;;27.10;93.30;;;;;;5121108;28;20181;-51
2021/06/17 02:35:54;;;;;;;14.85;4.22;;;27.10;93.20;;;;;;5121170;28;20015;-49
2021/06/17 02:38:29;;;;;;;15.57;4.57;;;27.20;93.40;;;;;;5120672;28;20170;-50
2021/06/17 02:41:03;;;;;;;16.58;4.65;;;27.20;93.10;;;;;;5118934;28;20023;-54
2021/06/17 02:43:34;;;;;;;12.98;4.18;;;27.20;93.10;;;;;;5111579;28;20313;-48
2021/06/17 02:46:02;;;;;;;13.00;4.15;;;27.20;93.10;;;;;;5111207;28;20212;-48
2021/06/17 02:48:29;;;;;;;14.73;4.15;;;27.20;93.00;;;;;;5115032;28;20043;-54
2021/06/17 02:50:57;;;;;;;14.63;4.20;;;27.20;93.00;;;;;;5120897;28;20046;-56
2021/06/17 02:53:23;;;;;;;14.55;3.97;;;27.20;93.00;;;;;;5118165;28;20200;-57
2021/06/17 02:55:51;;;;;;;15.63;4.13;;;27.20;93.00;;;;;;5120912;28;20083;-50
2021/06/17 02:58:33;;;;;;;19.10;4.38;;;27.20;93.00;;;;;;5119640;28;20031;-52
2021/06/17 03:01:05;;;;;;;16.73;4.38;;;27.20;93.10;;;;;;5120509;28;20016;-49
2021/06/17 03:04:07;;;;;;;17.08;4.22;;;27.20;93.10;;;;;;5119766;28;20048;-50
2021/06/17 03:06:41;;;;;;;15.40;3.97;;;27.20;93.20;;;;;;5113865;28;20055;-47
2021/06/17 03:09:13;;;;;;;16.80;4.30;;;27.20;93.20;;;;;;5112970;28;20366;-54
2021/06/17 03:11:44;;;;;;;17.70;4.80;;;27.10;93.20;;;;;;5114106;28;20312;-47
2021/06/17 03:14:15;;;;;;;16.67;4.57;;;27.10;93.20;;;;;;5108906;28;20039;-49
2021/06/17 03:16:45;;;;;;;16.45;4.20;;;27.10;93.30;;;;;;5109487;28;20046;-48
2021/06/17 03:19:13;;;;;;;15.38;4.75;;;27.10;93.30;;;;;;5110393;28;20216;-48
2021/06/17 03:21:44;;;;;;;13.63;4.60;;;27.10;93.40;;;;;;5111020;28;20208;-53
2021/06/17 03:24:12;;;;;;;15.15;4.82;;;27.10;93.40;;;;;;5113983;28;20252;-47
2021/06/17 03:26:41;;;;;;;17.40;3.97;;;27.10;93.30;;;;;;5113720;28;20092;-46
2021/06/17 03:29:09;;;;;;;15.30;4.45;;;27.10;93.40;;;;;;5108433;28;20083;-49
2021/06/17 03:31:37;;;;;;;10.07;3.75;;;27.10;93.50;;;;;;5109838;28;20035;-54
2021/06/17 03:34:05;;;;;;;11.48;4.28;;;27.00;93.50;;;;;;5108940;28;20036;-49
2021/06/17 03:36:33;;;;;;;15.23;4.65;;;27.00;93.50;;;;;;5099370;28;20019;-50
2021/06/17 03:39:02;;;;;;;11.10;4.18;;;27.10;93.60;;;;;;5097357;28;20024;-48
2021/06/17 03:41:29;;;;;;;16.20;4.50;;;27.00;93.60;;;;;;5098245;28;20034;-54
2021/06/17 03:43:57;;;;;;;15.80;4.45;;;27.00;93.60;;;;;;5099002;28;20024;-52
2021/06/17 03:46:25;;;;;;;14.15;3.90;;;27.00;93.60;;;;;;5097422;28;20078;-48
2021/06/17 03:48:54;;;;;;;17.13;4.45;;;27.00;93.50;;;;;;5094530;28;19944;-51
2021/06/17 03:51:21;;;;;;;15.98;4.40;;;27.10;93.50;;;;;;5097009;28;20309;-47
2021/06/17 03:53:48;;;;;;;14.10;3.60;;;27.10;93.60;;;;;;5099395;28;20038;-47
2021/06/17 03:56:15;;;;;;;;;;;27.10;93.50;;;;;;5103595;28;20024;-47
2021/06/17 03:58:42;;;;;;;;;;;27.00;93.60;;;;;;5103839;28;20116;-47
2021/06/17 04:01:12;;;;;;;;;;;27.00;93.70;;;;;;5104973;28;19930;-47
2021/06/17 04:03:41;;;;;;;15.32;4.32;;;27.00;93.70;;;;;;5103833;28;20039;-51
2021/06/17 04:06:13;;;;;;;17.23;4.07;;;27.00;93.80;;;;;;5102300;28;20022;-51
2021/06/17 04:08:48;;;;;;;17.10;4.03;;;27.00;93.70;;;;;;5105798;28;20035;-47
2021/06/17 04:11:18;;;;;;;13.40;4.00;;;27.00;93.70;;;;;;5104714;28;20118;-49
2021/06/17 04:13:44;;;;;;;;;;;26.90;93.70;;;;;;5106247;28;19954;-49
2021/06/17 04:16:15;;;;;;;;;;;26.90;93.80;;;;;;5096771;28;19908;-48
2021/06/17 04:18:43;;;;;;;;;;;27.00;93.80;;;;;;5093771;28;20073;-51
2021/06/17 04:21:10;;;;;;;;;;;27.00;93.90;;;;;;5086631;28;19904;-50
2021/06/17 04:23:37;;;;;;;;;;;26.90;93.80;;;;;;5086658;28;19916;-50
2021/06/17 04:26:04;;;;;;;;;;;26.90;93.80;;;;;;5086636;28;19901;-55
2021/06/17 04:28:31;;;;;;;;;;;26.90;93.80;;;;;;5100891;28;19927;-48
2021/06/17 04:30:58;;;;;;;;;;;27.00;93.70;;;;;;5106238;28;20185;-50
2021/06/17 04:33:25;;;;;;;;;;;27.00;93.70;;;;;;5105420;28;19904;-48
2021/06/17 04:35:54;;;;;;;;;;;27.00;93.70;;;;;;5106764;28;19944;-47
2021/06/17 04:38:20;;;;;;;;;;;26.90;93.60;;;;;;5106790;28;19912;-49
2021/06/17 04:40:47;;;;;;;;;;;26.90;93.60;;;;;;5105607;28;19971;-55
2021/06/17 04:43:15;;;;;;;;;;;27.00;93.50;;;;;;5106405;28;19904;-55
2021/06/17 04:45:42;;;;;;;;;;;27.00;93.60;;;;;;5106727;28;19945;-51
2021/06/17 04:48:10;;;;;;;;;;;26.90;93.50;;;;;;5105547;28;19904;-50
2021/06/17 04:50:37;;;;;;;;;;;27.00;93.50;;;;;;5105178;28;19913;-54
2021/06/17 04:53:06;;;;;;;;;;;26.90;93.40;;;;;;5106563;28;19911;-48
2021/06/17 04:55:33;;;;;;;;;;;26.90;93.50;;;;;;5106791;28;19912;-47
2021/06/17 04:57:59;;;;;;;;;;;26.90;93.50;;;;;;5105114;28;20145;-47
2021/06/17 05:00:25;;;;;;;;;;;26.90;93.60;;;;;;5106898;28;19912;-49
2021/06/17 05:02:51;;;;;;;;;;;26.90;93.60;;;;;;5106322;28;19971;-52
2021/06/17 05:05:18;;;;;;;;;;;26.80;93.60;;;;;;5106458;28;19916;-51
2021/06/17 05:12:54;;;;;;;;;;;26.80;93.70;;;;;;5106192;28;19911;-47
2021/06/17 05:15:21;;;;;;;;;;;26.80;93.70;;;;;;5105998;28;19947;-50
2021/06/17 05:17:47;;;;;;;;;;;26.80;93.60;;;;;;5106029;28;19904;-47
2021/06/17 05:20:13;;;;;;;;;;;26.80;93.70;;;;;;5105895;28;20101;-48
2021/06/17 05:22:41;;;;;;;;;;;26.80;93.70;;;;;;5105992;28;20107;-51
2021/06/17 05:25:08;;;;;;;;;;;26.70;93.70;;;;;;5105311;28;19924;-50
2021/06/17 05:27:36;;;;;;;;;;;26.70;93.80;;;;;;5105526;28;19967;-53
2021/06/17 05:30:02;;;;;;;;;;;26.70;93.90;;;;;;5105679;28;19979;-52
2021/06/17 05:32:28;;;;;;;;;;;26.70;93.90;;;;;;5105261;28;19904;-54
2021/06/17 05:34:54;;;;;;;;;;;26.70;93.90;;;;;;5105382;28;19919;-48
2021/06/17 05:37:21;;;;;;;;;;;26.70;94.00;;;;;;5105192;28;19904;-51
2021/06/17 05:39:47;;;;;;;;;;;26.70;94.00;;;;;;5105297;28;19912;-49
2021/06/17 05:42:13;;;;;;;;;;;26.70;94.00;;;;;;5104815;28;19904;-48
2021/06/17 05:44:39;;;;;;;;;;;26.70;93.80;;;;;;5105291;28;19915;-53
2021/06/17 05:47:05;;;;;;;;;;;26.70;93.70;;;;;;5105020;28;19904;-59
2021/06/17 05:49:32;;;;;;;;;;;26.70;93.80;;;;;;5105093;28;20096;-50
2021/06/17 05:51:58;;;;;;;;;;;26.70;93.80;;;;;;5104880;28;19911;-48
2021/06/17 05:54:24;;;;;;;;;;;26.70;93.90;;;;;;5105142;28;19916;-53
2021/06/17 05:56:50;;;;;;;;;;;26.70;94.00;;;;;;5104653;28;19930;-50
2021/06/17 05:59:18;;;;;;;;;;;26.60;94.10;;;;;;5104439;28;19950;-50
2021/06/17 06:01:44;;;;;;;;;;;26.70;94.00;;;;;;5104683;28;19971;-49
2021/06/17 06:04:10;;;;;;;;;;;26.70;94.00;;;;;;5104741;28;19916;-50
2021/06/17 06:06:37;;;;;;;;;;;26.70;94.00;;;;;;5104468;28;19908;-50
2021/06/17 06:09:03;;;;;;;;;;;26.60;94.00;;;;;;5104784;28;19916;-51
2021/06/17 06:11:30;;;;;;;;;;;26.60;94.00;;;;;;5104468;28;19912;-55
2021/06/17 06:13:56;;;;;;;;;;;26.60;93.90;;;;;;5104793;28;19952;-50
2021/06/17 06:16:23;;;;;;;;;;;26.70;93.90;;;;;;5104676;28;19904;-49
2021/06/17 06:18:49;;;;;;;;;;;26.70;93.80;;;;;;5103137;28;19912;-47
2021/06/17 06:21:16;;;;;;;;;;;26.60;93.70;;;;;;5104451;28;19904;-48
2021/06/17 06:23:42;;;;;;;;;;;26.70;93.70;;;;;;5104349;28;19920;-47
2021/06/17 06:26:08;;;;;;;;;;;26.60;93.70;;;;;;5104553;28;20245;-49
2021/06/17 06:28:34;;;;;;;;;;;26.60;93.70;;;;;;5104363;28;19953;-52
2021/06/17 06:31:01;;;;;;;;;;;26.60;93.80;;;;;;5104513;28;19989;-48
2021/06/17 06:33:27;;;;;;;;;;;26.60;93.80;;;;;;5104442;28;19904;-47
2021/06/17 06:35:53;;;;;;;;;;;26.60;93.90;;;;;;5104255;28;19925;-52
2021/06/17 06:38:20;;;;;;;;;;;26.50;93.90;;;;;;5104487;28;20102;-49
2021/06/17 06:40:46;;;;;;;;;;;26.50;93.80;;;;;;5104400;28;19911;-50
2021/06/17 06:43:15;;;;;;;;;;;26.50;93.80;;;;;;5102875;28;20156;-55
2021/06/17 06:45:41;;;;;;;;;;;26.50;93.80;;;;;;5104357;28;19915;-54
2021/06/17 06:48:08;;;;;;;;;;;26.50;93.80;;;;;;5104236;28;19904;-52
2021/06/17 06:50:34;;;;;;;;;;;26.50;93.80;;;;;;5104594;28;20192;-52
2021/06/17 06:53:00;;;;;;;;;;;26.50;93.70;;;;;;5104355;28;19904;-53
2021/06/17 06:55:27;;;;;;;;;;;26.50;93.70;;;;;;5104639;28;19912;-50
2021/06/17 06:57:54;;;;;;;;;;;26.50;93.60;;;;;;5104063;28;20232;-51
2021/06/17 07:00:21;;;;;;;;;;;26.50;93.50;;;;;;5104574;28;19912;-49
2021/06/17 07:02:47;;;;;;;;;;;26.40;93.40;;;;;;5104122;28;19935;-49
2021/06/17 07:05:13;;;;;;;;;;;26.50;93.40;;;;;;5104354;28;19922;-52
2021/06/17 07:07:40;;;;;;;;;;;26.40;93.30;;;;;;5104057;28;19904;-52
2021/06/17 07:10:07;;;;;;;;;;;26.40;93.30;;;;;;5104520;28;20104;-50
2021/06/17 07:12:34;;;;;;;;;;;26.30;93.30;;;;;;5107796;28;20189;-50
2021/06/17 07:15:00;;;;;;;;;;;26.30;93.30;;;;;;5108198;28;20180;-53
2021/06/17 07:17:27;;;;;;;;;;;26.30;93.20;;;;;;5107834;28;19971;-52
2021/06/17 07:19:57;;;;;;;;;;;26.30;93.20;;;;;;5108095;28;19919;-55
2021/06/17 07:22:23;;;;;;;;;;;26.30;93.20;;;;;;5107726;28;20096;-49
2021/06/17 07:24:50;;;;;;;;;;;26.30;93.20;;;;;;5107473;28;19920;-51
2021/06/17 07:27:16;;;;;;;;;;;26.30;93.20;;;;;;5107534;28;20294;-54
2021/06/17 07:29:42;;;;;;;;;;;26.30;93.30;;;;;;5107966;28;20310;-55
2021/06/17 07:32:08;;;;;;;;;;;26.30;93.40;;;;;;5107484;28;19910;-55
2021/06/17 07:34:36;;;;;;;;;;;26.30;93.40;;;;;;5107757;28;19912;-55
2021/06/17 07:37:02;;;;;;;;;;;26.30;93.50;;;;;;5107371;28;19904;-52
2021/06/17 07:39:28;;;;;;;;;;;26.30;93.50;;;;;;5107598;28;19916;-54
2021/06/17 07:41:55;;;;;;;;;;;26.30;93.50;;;;;;5107254;28;19912;-49
2021/06/17 07:44:21;;;;;;;;;;;26.20;93.50;;;;;;5107030;28;19916;-55
2021/06/17 07:46:47;;;;;;;;;;;26.20;93.50;;;;;;5107195;28;20099;-52
2021/06/17 07:49:13;;;;;;;;;;;26.30;93.50;;;;;;5107394;28;19975;-56
2021/06/17 07:51:40;;;;;;;;;;;26.30;93.60;;;;;;5107009;28;19904;-52
2021/06/17 07:54:06;;;;;;;;;;;26.20;93.60;;;;;;5107353;28;19913;-53
2021/06/17 07:56:33;;;;;;;;;;;26.20;93.60;;;;;;5107075;28;19984;-50
2021/06/17 07:58:59;;;;;;;;;;;26.20;93.70;;;;;;5107031;28;19912;-51
2021/06/17 08:01:26;;;;;;;;;;;26.20;93.70;;;;;;5106870;28;19904;-51
2021/06/17 08:03:52;;;;;;;;;;;26.20;93.70;;;;;;5107087;28;20195;-53
2021/06/17 08:06:19;;;;;;;;;;;26.20;93.60;;;;;;5106805;28;19904;-48
2021/06/17 08:08:45;;;;;;;;;;;26.20;93.70;;;;;;5106848;28;19912;-52
2021/06/17 08:11:12;;;;;;;;;;;26.20;93.80;;;;;;5106875;28;19904;-57
2021/06/17 08:13:38;;;;;;;;;;;26.20;93.80;;;;;;5106704;28;19999;-50
2021/06/17 08:16:05;;;;;;;;;;;26.20;93.80;;;;;;5106697;28;19973;-49
2021/06/17 08:18:32;;;;;;;;;;;26.10;93.80;;;;;;5106764;28;19912;-49
2021/06/17 08:21:01;;;;;;;;;;;26.10;93.80;;;;;;5106532;28;19904;-50
2021/06/17 08:23:27;;;;;;;;;;;26.10;93.80;;;;;;5106340;28;20196;-53
2021/06/17 08:25:54;;;;;;;;;;;26.10;93.80;;;;;;5106550;28;19908;-48
2021/06/17 08:28:24;;;;;;;;;;;26.10;93.90;;;;;;5106293;28;19904;-50
2021/06/17 08:30:51;;;;;;;;;;;26.10;93.90;;;;;;5106335;28;19908;-48
2021/06/17 08:33:17;;;;;;;;;;;26.10;93.90;;;;;;5106402;28;19910;-50
2021/06/17 08:35:43;;;;;;;;;;;26.10;93.90;;;;;;5106243;28;19912;-50
2021/06/17 08:38:09;;;;;;;;;;;26.10;94.00;;;;;;5106391;28;20184;-54
2021/06/17 08:40:36;;;;;;;;;;;26.10;94.00;;;;;;5106194;28;19918;-53
2021/06/17 08:43:03;;;;;;;;;;;26.10;94.20;;;;;;5106029;28;19904;-52
2021/06/17 08:45:30;;;;;;;;;;;26.10;94.00;;;;;;5106593;28;19916;-48
2021/06/17 08:47:56;;;;;;;;;;;26.10;94.00;;;;;;5106048;28;19908;-55
2021/06/17 08:50:23;;;;;;;;;;;26.10;94.00;;;;;;5106435;28;19931;-49
2021/06/17 08:52:50;;;;;;;;;;;26.10;94.00;;;;;;5106218;28;19916;-52
2021/06/17 08:55:20;;;;;;;;;;;26.10;93.90;;;;;;5106361;28;19908;-48
2021/06/17 08:57:47;;;;;;;;;;;26.10;94.00;;;;;;5105847;28;19956;-51
2021/06/17 09:00:20;;;;;;;;;;;26.10;94.20;;;;;;5106243;28;19979;-51
2021/06/17 09:03:03;;;;;;;;;;;26.10;94.10;;;;;;5105858;28;19915;-57
2021/06/17 09:05:30;;;;;;;;;;;26.10;94.00;;;;;;5106140;28;19935;-58
2021/06/17 09:07:57;;;;;;;;;;;26.10;94.00;;;;;;5105707;28;19908;-55
2021/06/17 09:10:24;;;;;;;;;;;26.10;94.00;;;;;;5106057;28;20078;-51
2021/06/17 09:12:51;;;;;;;;;;;26.10;94.00;;;;;;5105548;28;19915;-58
2021/06/17 09:15:27;;;;;;;;;;;26.00;94.00;;;;;;5105373;28;19945;-52
2021/06/17 09:18:12;;;;;;;;;;;26.00;94.00;;;;;;5105341;28;19979;-55
2021/06/17 09:20:42;;;;;;;;;;;26.00;94.10;;;;;;5105403;28;19918;-57
2021/06/17 09:23:18;;;;;;;;;;;26.00;94.10;;;;;;5105269;28;19938;-49
2021/06/17 09:25:53;;;;;;;;;;;26.00;94.10;;;;;;5105244;28;19927;-49
2021/06/17 09:28:19;;;;;;;;;;;26.00;94.10;;;;;;5105161;28;19904;-56
2021/06/17 09:30:45;;;;;;;;;;;26.00;94.00;;;;;;5105311;28;20140;-53
2021/06/17 09:33:13;;;;;;;;;;;26.10;94.00;;;;;;5104678;28;19905;-52
2021/06/17 09:36:05;;;;;;;;;;;26.10;94.00;;;;;;5105142;28;20149;-58
2021/06/17 09:38:41;;;;;;;;;;;26.10;94.00;;;;;;5104048;28;19946;-55
2021/06/17 09:41:08;;;;;;;;;;;26.10;94.10;;;;;;5104929;28;19939;-47
2021/06/17 09:43:41;;;;;;;;;;;26.00;94.00;;;;;;5104913;28;19944;-53
2021/06/17 09:46:10;;;;;;;;;;;26.00;94.00;;;;;;5104976;28;19904;-53
2021/06/17 09:48:39;;;;;;;;;;;26.00;94.00;;;;;;5104921;28;19912;-51
2021/06/17 09:51:24;;;;;;;;;;;26.00;94.00;;;;;;5105066;28;19911;-54
2021/06/17 09:53:51;;;;;;;;;;;26.00;94.00;;;;;;5104821;28;20025;-55
2021/06/17 09:56:17;;;;;;;;;;;26.00;94.00;;;;;;5104900;28;19911;-55
2021/06/17 09:58:46;;;;;;;;;;;26.00;94.00;;;;;;5105087;28;19919;-53
2021/06/17 10:01:16;;;;;;;;;;;26.00;94.10;;;;;;5104697;28;19966;-54
2021/06/17 10:03:58;;;;;;;;;;;26.00;94.20;;;;;;5104829;28;19912;-55
2021/06/17 10:06:25;;;;;;;;;;;26.00;94.20;;;;;;5104525;28;19908;-54
2021/06/17 10:08:51;;;;;;;;;;;25.90;94.10;;;;;;5104805;28;19912;-52
2021/06/17 10:11:17;;;;;;;;;;;25.90;94.10;;;;;;5104608;28;19911;-52
2021/06/17 10:13:44;;;;;;;;;;;25.90;94.20;;;;;;5104600;28;19912;-56
2021/06/17 10:16:16;;;;;;;;;;;25.90;94.10;;;;;;5104604;28;19938;-54
2021/06/17 10:18:43;;;;;;;;;;;25.90;94.10;;;;;;5104673;28;19979;-52
2021/06/17 10:21:13;;;;;;;;;;;25.90;94.10;;;;;;5104213;28;19932;-52
2021/06/17 10:23:42;;;;;;;;;;;25.90;94.10;;;;;;5104414;28;19912;-55
2021/06/17 10:26:08;;;;;;;;;;;25.90;94.10;;;;;;5104441;28;19907;-50
2021/06/17 10:28:45;;;;;;;;;;;25.90;94.10;;;;;;5104430;28;19979;-57
2021/06/17 10:31:14;;;;;;;;;;;25.90;94.10;;;;;;5104478;28;20019;-56
2021/06/17 10:33:41;;;;;;;;;;;25.90;94.00;;;;;;5104402;28;19920;-54
2021/06/17 10:36:22;;;;;;;;;;;25.90;94.10;;;;;;5104390;28;20185;-48
2021/06/17 10:39:10;;;;;;;;;;;25.90;94.00;;;;;;5104383;28;19920;-54
2021/06/17 10:41:51;;;;;;;;;;;25.90;94.10;;;;;;5104483;28;20197;-56
2021/06/17 10:44:35;;;;;;;;;;;25.90;94.00;;;;;;5104287;28;19916;-50
2021/06/17 10:47:01;;;;;;;;;;;25.90;94.00;;;;;;5107425;28;19912;-52
2021/06/17 10:49:46;;;;;;;;;;;25.80;93.90;;;;;;5108444;28;19975;-49
2021/06/17 10:52:23;;;;;;;;;;;25.90;94.00;;;;;;5107191;28;19988;-52
2021/06/17 10:54:56;;;;;;;;;;;25.80;93.90;;;;;;5108484;28;20189;-52
2021/06/17 10:57:41;;;;;;;;;;;25.80;93.80;;;;;;5108228;28;19904;-49
2021/06/17 11:00:30;;;;;;;;;;;25.80;93.70;;;;;;5107964;28;20002;-48
2021/06/17 11:03:05;;;;;;;;;;;25.80;93.80;;;;;;5101530;28;20211;-53
2021/06/17 11:05:35;;;;;;;;;;;25.80;93.70;;;;;;5108493;28;19916;-51
2021/06/17 11:08:13;;;;;;;;;;;25.80;93.70;;;;;;5108008;28;20164;-52
2021/06/17 11:10:49;;;;;;;;;;;25.80;93.70;;;;;;5107860;28;19912;-52
2021/06/17 11:13:28;;;;;;;;;;;25.80;93.80;;;;;;5107937;28;20239;-51
2021/06/17 11:15:55;;;;;;;;;;;25.80;93.70;;;;;;5107696;28;19904;-53
2021/06/17 11:18:40;;;;;;;;;;;25.80;93.60;;;;;;5107746;28;19915;-57
2021/06/17 11:21:22;;;;;;;;;;;25.80;93.60;;;;;;5107434;28;19912;-48
2021/06/17 11:23:52;;;;;;;;;;;25.80;93.60;;;;;;5107502;28;20113;-49
2021/06/17 11:26:37;;;;;;;;;;;25.90;93.60;;;;;;5107618;28;19904;-46
2021/06/17 11:29:04;;;;;;;;;;;25.90;93.60;;;;;;5107753;28;19912;-52
2021/06/17 11:31:53;;;;;;;;;;;25.80;93.60;;;;;;5107436;28;19927;-52
2021/06/17 11:34:29;;;;;;;;;;;25.90;93.60;;;;;;5104795;28;20101;-52
2021/06/17 11:36:56;;;;;;;;;;;25.90;93.70;;;;;;5106835;28;19905;-47
2021/06/17 11:39:26;;;;;;;;;;;25.90;93.60;;;;;;5107616;28;19912;-51
2021/06/17 11:41:53;;;;;;;;;;;25.90;93.60;;;;;;5107387;28;19910;-48
2021/06/17 11:44:24;;;;;;;;;;;25.90;93.70;;;;;;5106988;28;20148;-50
2021/06/17 11:47:01;;;;;;;;;;;25.90;93.60;;;;;;5107300;28;19972;-49
2021/06/17 11:49:31;;;;;;;;;;;25.90;93.60;;;;;;5107406;28;19908;-53
2021/06/17 11:51:58;;;;;;;;;;;25.90;93.60;;;;;;5107100;28;19908;-52
2021/06/17 11:54:25;;;;;;;;;;;25.90;93.80;;;;;;5107347;28;20204;-51
2021/06/17 11:56:52;;;;;;;;;;;25.90;93.70;;;;;;5106343;28;20107;-57
2021/06/17 11:59:21;;;;;;;;;;;26.00;93.80;;;;;;5104889;28;19912;-51
2021/06/17 12:02:07;;;;;;;;;;;26.00;93.80;;;;;;5102159;28;20192;-48
2021/06/17 12:04:56;;;;;;;;;;;26.00;93.80;;;;;;5107117;28;19923;-53
2021/06/17 12:07:33;;;;;;;;;;;26.00;94.00;;;;;;5076241;28;19950;-52
2021/06/17 12:10:11;;;;;;;;;;;26.00;93.80;;;;;;5088213;28;19974;-50
2021/06/17 12:12:40;;;;;;;;;;;26.10;93.70;;;;;;5105517;28;19904;-55
2021/06/17 12:15:08;;;;;;;;;;;26.00;93.60;;;;;;5106938;28;19970;-53
2021/06/17 12:17:41;;;;;;;;;;;26.10;93.70;;;;;;5106797;28;19995;-50
2021/06/17 12:20:12;;;;;;;;;;;26.10;93.60;;;;;;5106854;28;19912;-50
2021/06/17 12:22:39;;;;;;;;;;;26.10;93.60;;;;;;5106563;28;19971;-58
2021/06/17 12:25:06;;;;;;;;;;;26.10;93.60;;;;;;5106329;28;19920;-51
2021/06/17 12:27:32;;;;;;;;;;;26.20;93.60;;;;;;5106527;28;19911;-50
2021/06/17 12:30:24;;;;;;;;;;;26.20;93.60;;;;;;5106600;28;19920;-50
2021/06/17 12:32:51;;;;;;;;;;;26.20;93.60;;;;;;5098028;28;20227;-46
2021/06/17 12:35:18;;;;;;;;;;;26.20;93.50;;;;;;5106398;28;20180;-46
2021/06/17 12:37:54;;;;;;;;;;;26.30;93.60;;;;;;5106320;28;19926;-57
2021/06/17 12:40:27;;;;;;;;;;;26.30;93.60;;;;;;5106339;28;19912;-50
2021/06/17 12:43:03;;;;;;;;;;;26.30;93.40;;;;;;5106259;28;20073;-51
2021/06/17 12:45:29;;;;;;;;;;;26.30;93.40;;;;;;5105879;28;19916;-52
2021/06/17 12:47:57;;;;;;;;;;;26.30;93.20;;;;;;5105695;28;19954;-58
2021/06/17 12:53:08;;;;;;;;;;;26.30;92.90;;;;;;5105232;28;19979;-52
2021/06/17 12:55:37;;;;;;;;;;;26.40;92.90;;;;;;5106302;28;20124;-46
2021/06/17 12:58:04;;;;;;;;;;;26.40;92.50;;;;;;5105289;28;19965;-51
2021/06/17 13:00:30;;;;;;;;;;;26.40;92.50;;;;;;5106289;28;19916;-50
2021/06/17 13:02:56;;;;;;;;;;;26.40;92.60;;;;;;5105967;28;20131;-53
2021/06/17 13:05:23;;;;;;;;;;;26.40;92.30;;;;;;5105928;28;19923;-52
2021/06/17 13:08:00;;;;;;;;;;;26.50;92.50;;;;;;5104092;28;19930;-46
2021/06/17 13:10:27;;;;;;;;;;;26.50;92.30;;;;;;5105669;28;20257;-50
2021/06/17 13:13:12;;;;;;;;;;;26.50;92.10;;;;;;5105193;28;20194;-57
2021/06/17 13:15:38;;;;;;;;;;;26.50;92.40;;;;;;5101813;28;19912;-53
2021/06/17 13:18:05;;;;;;;;;;;26.50;92.50;;;;;;5105416;28;19979;-54
2021/06/17 13:20:36;;;;;;;;;;;26.50;92.60;;;;;;5105881;28;19919;-51
2021/06/17 13:23:08;;;;;;;;;;;26.60;92.30;;;;;;5105634;28;20211;-53
2021/06/17 13:25:36;;;;;;;;;;;26.50;92.40;;;;;;5091074;28;19921;-54
2021/06/17 13:28:04;;;;;;;;;;;26.60;92.60;;;;;;5105056;28;19988;-48
2021/06/17 13:30:34;;;;;;;;;;;26.60;92.60;;;;;;5104810;28;19916;-54
2021/06/17 13:33:03;;;;;;;;;;;26.60;92.90;;;;;;5105166;28;20248;-54
2021/06/17 13:35:29;;;;;;;;;;;26.60;92.70;;;;;;5105275;28;19912;-50
2021/06/17 13:37:57;;;;;;;;;;;26.70;92.70;;;;;;5104811;28;19916;-54
2021/06/17 13:40:24;;;;;;;;;;;26.70;92.70;;;;;;5103929;28;19912;-55
2021/06/17 13:42:55;;;;;;;;;;;26.70;92.80;;;;;;5104992;28;19904;-54
2021/06/17 13:45:21;;;;;;;;;;;26.80;92.90;;;;;;5105170;28;20302;-52
2021/06/17 13:47:48;;;;;;;;;;;26.80;92.70;;;;;;5104993;28;20185;-46
2021/06/17 13:50:20;;;;;;;;;;;26.80;92.60;;;;;;5105312;28;19912;-51
2021/06/17 13:52:47;;;;;;;;;;;26.80;92.40;;;;;;5105364;28;19904;-48
2021/06/17 13:55:16;;;;;;;;;;;26.80;92.30;;;;;;5104814;28;19919;-53
2021/06/17 13:57:44;;;;;;;;;;;26.80;92.40;;;;;;5104696;28;19941;-50
2021/06/17 14:00:13;;;;;;;;;;;26.80;92.40;;;;;;5104631;28;19920;-45
2021/06/17 14:02:46;;;;;;;;;;;26.80;92.30;;;;;;5104793;28;19911;-53
2021/06/17 14:05:13;;;;;;;;;;;26.80;92.50;;;;;;5104856;28;19962;-48
2021/06/17 14:07:39;;;;;;;;;;;26.80;92.60;;;;;;5104268;28;19983;-53
2021/06/17 14:10:07;;;;;;;;;;;26.90;92.60;;;;;;5104046;28;19973;-48
2021/06/17 14:12:33;;;;;;;;;;;26.80;92.60;;;;;;5104026;28;19915;-55
2021/06/17 14:14:59;;;;;;;;;;;26.80;92.70;;;;;;5103562;28;19919;-50
2021/06/17 14:17:26;;;;;;;;;;;26.90;92.90;;;;;;5103518;28;19905;-55
2021/06/17 14:19:52;;;;;;;;;;;26.90;92.80;;;;;;5103391;28;19912;-51
2021/06/17 14:22:18;;;;;;;;;;;26.90;92.70;;;;;;5103358;28;20149;-47
2021/06/17 14:24:44;;;;;;;;;;;26.90;92.70;;;;;;5102990;28;19928;-48
2021/06/17 14:27:10;;;;;;;;;;;26.90;92.70;;;;;;5103325;28;20160;-54